createdAt,value
2023-02-11T00:01:25.933Z,103312.78
2023-02-11T00:03:54.173Z,103319.91
2023-02-11T00:06:22.592Z,103324.38
2023-02-11T00:08:50.404Z,103320.06
2023-02-11T00:11:22.188Z,103316.53
2023-02-11T00:13:50.382Z,103311.94
2023-02-11T00:16:20.140Z,103310.16
2023-02-11T00:18:48.612Z,103316.41
2023-02-11T00:21:18.718Z,103309.38
2023-02-11T00:23:47.433Z,103302.38
2023-02-11T00:26:16.284Z,103300.59
2023-02-11T00:28:46.499Z,103303.13
2023-02-11T00:31:14.961Z,103288.09
2023-02-11T00:33:43.085Z,103292.47
2023-02-11T00:36:14.837Z,103290.53
2023-02-11T00:38:44.242Z,103287.91
2023-02-11T00:41:13.047Z,103286.16
2023-02-11T00:43:41.075Z,103288.72
2023-02-11T00:46:10.714Z,103281.47
2023-02-11T00:48:38.870Z,103289.47
2023-02-11T00:51:08.249Z,103288.53
2023-02-11T00:53:37.270Z,103285.94
2023-02-11T00:56:06.117Z,103296.53
2023-02-11T00:58:33.939Z,103288.72
2023-02-11T01:01:01.904Z,103294.91
2023-02-11T01:03:31.194Z,103291.31
2023-02-11T01:05:59.144Z,103283.25
2023-02-11T01:08:27.093Z,103277.94
2023-02-11T01:10:56.423Z,103279.72
2023-02-11T01:13:24.968Z,103276.97
2023-02-11T01:15:53.070Z,103273.31
2023-02-11T01:18:20.981Z,103277.69
2023-02-11T01:20:50.200Z,103263.41
2023-02-11T01:23:18.024Z,103264.22
2023-02-11T01:25:46.493Z,103264.22
2023-02-11T01:28:18.556Z,103266.94
2023-02-11T01:30:46.528Z,103253.72
2023-02-11T01:33:14.562Z,103262.59
2023-02-11T01:35:44.340Z,103264.19
2023-02-11T01:38:16.729Z,103266.69
2023-02-11T01:40:48.566Z,103266.81
2023-02-11T01:43:16.383Z,103264.03
2023-02-11T01:46:13.756Z,103269.25
2023-02-11T01:48:45.378Z,103268.50
2023-02-11T01:51:17.990Z,103264.94
2023-02-11T01:54:06.300Z,103267.66
2023-02-11T01:56:53.840Z,103268.44
2023-02-11T01:59:25.528Z,103262.94
2023-02-11T02:01:59.974Z,103254.94
2023-02-11T02:04:32.053Z,103259.31
2023-02-11T02:07:04.715Z,103264.53
2023-02-11T02:09:38.797Z,103265.44
2023-02-11T02:12:06.991Z,103264.69
2023-02-11T02:14:34.810Z,103259.25
2023-02-11T02:17:02.643Z,103255.53
2023-02-11T02:20:03.045Z,103252.72
2023-02-11T02:23:10.456Z,103252.59
2023-02-11T02:26:05.715Z,103245.72
2023-02-11T02:28:59.415Z,103253.50
2023-02-11T02:31:58.485Z,103250.69
2023-02-11T02:34:36.124Z,103242.69
2023-02-11T02:37:09.310Z,103240.97
2023-02-11T02:39:38.387Z,103234.19
2023-02-11T02:42:06.914Z,103237.47
2023-02-11T02:44:35.092Z,103237.84
2023-02-11T02:47:02.860Z,103235.91
2023-02-11T02:49:31.972Z,103237.69
2023-02-11T02:52:28.207Z,103235.75
2023-02-11T02:55:13.234Z,103229.56
2023-02-11T02:57:57.511Z,103225.13
2023-02-11T03:00:31.246Z,103227.94
2023-02-11T03:03:17.061Z,103221.94
2023-02-11T03:05:54.025Z,103225.50
2023-02-11T03:08:30.017Z,103228.19
2023-02-11T03:10:59.108Z,103216.50
2023-02-11T03:13:33.388Z,103217.28
2023-02-11T03:16:05.744Z,103214.63
2023-02-11T03:18:36.317Z,103204.97
2023-02-11T03:21:09.249Z,103200.41
2023-02-11T03:23:40.554Z,103203.03
2023-02-11T03:26:17.474Z,103201.19
2023-02-11T03:28:50.666Z,103196.78
2023-02-11T03:31:23.283Z,103197.72
2023-02-11T03:33:58.378Z,103192.53
2023-02-11T03:36:33.679Z,103191.59
2023-02-11T03:39:04.809Z,103193.53
2023-02-11T03:41:34.674Z,103187.16
2023-02-11T03:44:03.775Z,103183.63
2023-02-11T03:46:34.483Z,103184.47
2023-02-11T03:49:05.203Z,103186.31
2023-02-11T03:51:36.141Z,103186.06
2023-02-11T03:54:11.392Z,103186.66
2023-02-11T03:56:48.204Z,103179.75
2023-02-11T03:59:15.951Z,103184.03
2023-02-11T04:01:43.753Z,103167.97
2023-02-11T04:04:11.936Z,103176.59
2023-02-11T04:06:41.413Z,103171.69
2023-02-11T04:09:09.164Z,103169.91
2023-02-11T04:11:37.062Z,103173.91
2023-02-11T04:14:04.889Z,103175.44
2023-02-11T04:16:32.721Z,103179.97
2023-02-11T04:19:01.631Z,103177.72
2023-02-11T04:21:29.482Z,103179.56
2023-02-11T04:23:58.629Z,103176.72
2023-02-11T04:26:26.408Z,103176.41
2023-02-11T04:28:54.148Z,103170.41
2023-02-11T04:31:21.983Z,103172.94
2023-02-11T04:33:49.822Z,103167.69
2023-02-11T04:36:17.646Z,103165.63
2023-02-11T04:38:45.436Z,103170.31
2023-02-11T04:41:14.630Z,103159.63
2023-02-11T04:43:42.411Z,103163.19
2023-02-11T04:46:10.292Z,103167.63
2023-02-11T04:48:38.222Z,103169.56
2023-02-11T04:51:06.165Z,103168.91
2023-02-11T04:53:33.887Z,103167.84
2023-02-11T04:56:01.682Z,103164.75
2023-02-11T04:58:30.824Z,103161.91
2023-02-11T05:01:06.900Z,103172.66
2023-02-11T05:03:34.950Z,103159.94
2023-02-11T05:06:02.752Z,103172.94
2023-02-11T05:08:30.552Z,103169.66
2023-02-11T05:10:58.739Z,103158.53
2023-02-11T05:13:26.681Z,103162.28
2023-02-11T05:15:56.215Z,103161.09
2023-02-11T05:18:24.245Z,103164.41
2023-02-11T05:20:51.969Z,103157.69
2023-02-11T05:23:19.741Z,103160.66
2023-02-11T05:25:47.457Z,103160.50
2023-02-11T05:28:15.345Z,103164.25
2023-02-11T05:30:43.167Z,103160.25
2023-02-11T05:33:12.348Z,103163.91
2023-02-11T05:35:40.053Z,103166.34
2023-02-11T05:38:07.872Z,103163.69
2023-02-11T05:40:35.620Z,103163.97
2023-02-11T05:43:03.583Z,103167.13
2023-02-11T05:45:31.327Z,103163.19
2023-02-11T05:47:59.186Z,103172.22
2023-02-11T05:50:28.351Z,103160.06
2023-02-11T05:52:56.380Z,103157.28
2023-02-11T05:55:24.312Z,103149.94
2023-02-11T05:57:52.107Z,103145.25
2023-02-11T06:00:20.216Z,103155.91
2023-02-11T06:02:48.104Z,103155.81
2023-02-11T06:05:15.850Z,103156.50
2023-02-11T06:07:45.010Z,103156.31
2023-02-11T06:10:13.592Z,103149.88
2023-02-11T06:12:41.507Z,103155.09
2023-02-11T06:15:09.549Z,103146.41
2023-02-11T06:17:37.515Z,103158.03
2023-02-11T06:20:07.550Z,103156.41
2023-02-11T06:22:35.655Z,103155.91
2023-02-11T06:25:05.242Z,103152.50
2023-02-11T06:27:33.097Z,103146.19
2023-02-11T06:30:00.854Z,103147.34
2023-02-11T06:32:43.315Z,103150.09
2023-02-11T06:35:12.691Z,103151.81
2023-02-11T06:37:40.993Z,103158.59
2023-02-11T06:40:11.014Z,103152.56
2023-02-11T06:42:39.523Z,103149.88
2023-02-11T06:45:09.444Z,103160.38
2023-02-11T06:47:37.627Z,103155.84
2023-02-11T06:50:06.046Z,103160.53
2023-02-11T06:52:33.920Z,103161.34
2023-02-11T06:55:02.555Z,103160.25
2023-02-11T06:57:33.284Z,103156.13
2023-02-11T07:00:01.048Z,103166.88
2023-02-11T07:02:28.927Z,103167.66
2023-02-11T07:04:56.688Z,103171.47
2023-02-11T07:07:24.526Z,103172.31
2023-02-11T07:09:52.291Z,103173.31
2023-02-11T07:12:20.298Z,103167.28
2023-02-11T07:14:49.357Z,103172.94
2023-02-11T07:17:17.250Z,103171.94
2023-02-11T07:19:45.063Z,103172.78
2023-02-11T07:22:12.939Z,103172.94
2023-02-11T07:24:40.708Z,103172.56
2023-02-11T07:27:08.482Z,103182.22
2023-02-11T07:29:36.267Z,103191.97
2023-02-11T07:32:05.575Z,103186.69
2023-02-11T07:34:33.411Z,103197.38
2023-02-11T07:37:01.275Z,103188.53
2023-02-11T07:39:29.462Z,103186.16
2023-02-11T07:41:57.529Z,103191.69
2023-02-11T07:44:25.387Z,103193.38
2023-02-11T07:46:53.344Z,103196.00
2023-02-11T07:49:22.475Z,103198.69
2023-02-11T07:51:51.273Z,103202.56
2023-02-11T07:54:19.301Z,103208.91
2023-02-11T07:56:47.153Z,103206.38
2023-02-11T07:59:15.017Z,103200.25
2023-02-11T08:01:42.817Z,103199.19
2023-02-11T08:04:10.670Z,103203.28
2023-02-11T08:06:42.792Z,103209.91
2023-02-11T08:09:14.915Z,103208.13
2023-02-11T08:11:42.800Z,103210.88
2023-02-11T08:14:11.116Z,103208.31
2023-02-11T08:16:39.859Z,103218.84
2023-02-11T08:19:11.332Z,103226.56
2023-02-11T08:21:41.078Z,103223.53
2023-02-11T08:24:09.587Z,103218.97
2023-02-11T08:26:37.857Z,103224.16
2023-02-11T08:29:10.277Z,103211.00
2023-02-11T08:31:40.144Z,103219.63
2023-02-11T08:34:08.312Z,103220.50
2023-02-11T08:36:38.190Z,103222.59
2023-02-11T08:39:19.372Z,103199.56
2023-02-11T08:41:49.467Z,103209.00
2023-02-11T08:44:17.291Z,103209.97
2023-02-11T08:46:45.108Z,103212.19
2023-02-11T08:49:12.849Z,103216.75
2023-02-11T08:51:41.121Z,103209.34
2023-02-11T08:54:10.458Z,103212.13
2023-02-11T08:56:38.955Z,103204.25
2023-02-11T08:59:07.274Z,103206.78
2023-02-11T09:01:35.638Z,103194.97
2023-02-11T09:04:03.512Z,103195.06
2023-02-11T09:06:31.515Z,103207.59
2023-02-11T09:09:00.011Z,103215.72
2023-02-11T09:11:32.206Z,103219.09
2023-02-11T09:14:00.144Z,103216.16
2023-02-11T09:16:29.851Z,103215.50
2023-02-11T09:18:58.655Z,103213.63
2023-02-11T09:21:27.277Z,103220.91
2023-02-11T09:23:55.338Z,103219.25
2023-02-11T09:26:25.254Z,103215.97
2023-02-11T09:28:54.664Z,103214.28
2023-02-11T09:31:24.794Z,103227.53
2023-02-11T09:33:56.344Z,103216.22
2023-02-11T09:36:25.974Z,103224.38
2023-02-11T09:38:53.936Z,103219.91
2023-02-11T09:41:34.747Z,103217.25
2023-02-11T09:44:07.267Z,103220.50
2023-02-11T09:46:39.002Z,103216.34
2023-02-11T09:49:08.570Z,103218.44
2023-02-11T09:51:43.235Z,103220.31
2023-02-11T09:54:17.992Z,103222.16
2023-02-11T09:56:45.823Z,103222.25
2023-02-11T09:59:17.494Z,103228.66
2023-02-11T10:01:51.336Z,103219.84
2023-02-11T10:04:34.500Z,103232.28
2023-02-11T10:07:11.499Z,103226.84
2023-02-11T10:09:52.520Z,103230.50
2023-02-11T10:12:36.120Z,103226.03
2023-02-11T10:15:16.097Z,103224.56
2023-02-11T10:17:57.968Z,103219.47
2023-02-11T10:20:34.664Z,103220.53
2023-02-11T10:23:10.295Z,103218.03
2023-02-11T10:25:40.378Z,103222.47
2023-02-11T10:28:15.430Z,103221.63
2023-02-11T10:30:53.913Z,103220.81
2023-02-11T10:33:27.692Z,103218.31
2023-02-11T10:35:55.369Z,103215.66
2023-02-11T10:38:23.153Z,103212.97
2023-02-11T10:40:51.214Z,103213.84
2023-02-11T10:43:24.728Z,103212.13
2023-02-11T10:45:55.330Z,103211.22
2023-02-11T10:48:41.507Z,103211.22
2023-02-11T10:51:17.018Z,103209.44
2023-02-11T10:53:45.610Z,103211.19
2023-02-11T10:56:22.092Z,103205.00
2023-02-11T10:58:57.477Z,103205.88
2023-02-11T11:01:40.612Z,103210.31
2023-02-11T11:04:28.493Z,103204.13
2023-02-11T11:06:56.668Z,103204.94
2023-02-11T11:09:30.366Z,103203.09
2023-02-11T11:11:58.286Z,103195.81
2023-02-11T11:14:29.037Z,103187.66
2023-02-11T11:16:58.136Z,103177.63
2023-02-11T11:19:26.807Z,103190.75
2023-02-11T11:21:56.670Z,103188.06
2023-02-11T11:24:32.305Z,103191.38
2023-02-11T11:27:02.865Z,103190.50
2023-02-11T11:29:35.927Z,103185.09
2023-02-11T11:32:12.418Z,103185.94
2023-02-11T11:34:42.865Z,103180.41
2023-02-11T11:37:15.948Z,103182.88
2023-02-11T11:39:57.381Z,103174.53
2023-02-11T11:42:30.073Z,103169.13
2023-02-11T11:45:00.163Z,103173.66
2023-02-11T11:47:36.018Z,103168.19
2023-02-11T11:50:26.716Z,103170.47
2023-02-11T11:53:01.419Z,103161.28
2023-02-11T11:55:36.008Z,103162.78
2023-02-11T11:58:03.844Z,103155.56
2023-02-11T12:00:37.675Z,103157.16
2023-02-11T12:03:39.681Z,103156.16
2023-02-11T12:06:19.295Z,103152.56
2023-02-11T12:08:57.980Z,103139.84
2023-02-11T12:11:34.546Z,103136.41
2023-02-11T12:14:13.599Z,103138.03
2023-02-11T12:16:54.402Z,103135.13
2023-02-11T12:19:54.918Z,103129.69
2023-02-11T12:22:36.021Z,103133.66
2023-02-11T12:25:27.424Z,103141.34
2023-02-11T12:28:08.462Z,103132.41
2023-02-11T12:30:54.591Z,103125.38
2023-02-11T12:33:41.784Z,103116.53
2023-02-11T12:36:19.942Z,103122.69
2023-02-11T12:39:01.348Z,103123.75
2023-02-11T12:42:04.147Z,103112.84
2023-02-11T12:44:43.228Z,103116.53
2023-02-11T12:47:17.954Z,103117.03
2023-02-11T12:49:57.897Z,103113.97
2023-02-11T12:52:40.426Z,103102.47
2023-02-11T12:55:15.323Z,103102.91
2023-02-11T12:57:44.190Z,103095.38
2023-02-11T13:00:18.462Z,103104.75
2023-02-11T13:02:54.425Z,103097.28
2023-02-11T13:05:30.544Z,103093.13
2023-02-11T13:08:06.897Z,103084.63
2023-02-11T13:10:37.633Z,103086.56
2023-02-11T13:13:18.052Z,103069.75
2023-02-11T13:15:49.763Z,103077.13
2023-02-11T13:18:49.321Z,103066.22
2023-02-11T13:21:27.676Z,103060.91
2023-02-11T13:24:05.512Z,103062.31
2023-02-11T13:26:40.585Z,103067.38
2023-02-11T13:29:20.548Z,103056.34
2023-02-11T13:31:55.358Z,103057.66
2023-02-11T13:34:47.556Z,103054.94
2023-02-11T13:37:23.292Z,103048.06
2023-02-11T13:40:00.049Z,103044.84
2023-02-11T13:42:28.472Z,103032.66
2023-02-11T13:44:57.239Z,103024.16
2023-02-11T13:47:32.251Z,103028.50
2023-02-11T13:50:02.639Z,103031.09
2023-02-11T13:52:32.814Z,103028.88
2023-02-11T13:55:10.619Z,103019.13
2023-02-11T13:57:40.685Z,103019.56
2023-02-11T14:00:48.481Z,103018.47
2023-02-11T14:03:46.187Z,103012.06
2023-02-11T14:06:37.576Z,103012.75
2023-02-11T14:09:39.561Z,103008.75
2023-02-11T14:12:36.804Z,103015.25
2023-02-11T14:15:28.476Z,103006.94
2023-02-11T14:17:56.734Z,103012.28
2023-02-11T14:20:41.974Z,103016.16
2023-02-11T14:23:24.450Z,103003.41
2023-02-11T14:26:05.841Z,103005.94
2023-02-11T14:28:35.944Z,103007.66
2023-02-11T14:31:11.463Z,103004.59
2023-02-11T14:33:56.389Z,103000.34
2023-02-11T14:36:47.956Z,102994.81
2023-02-11T14:39:27.539Z,102992.22
2023-02-11T14:41:56.232Z,102985.53
2023-02-11T14:44:28.206Z,102992.06
2023-02-11T14:46:56.640Z,102996.34
2023-02-11T14:49:28.411Z,102999.63
2023-02-11T14:52:01.377Z,102994.50
2023-02-11T14:54:30.321Z,102988.47
2023-02-11T14:57:11.241Z,102977.88
2023-02-11T14:59:41.035Z,102987.38
2023-02-11T15:02:23.558Z,102994.50
2023-02-11T15:04:51.378Z,102987.16
2023-02-11T15:07:19.556Z,102984.88
2023-02-11T15:09:50.208Z,102984.56
2023-02-11T15:12:23.656Z,102989.47
2023-02-11T15:14:56.114Z,102984.50
2023-02-11T15:17:27.355Z,102992.38
2023-02-11T15:19:57.851Z,102985.72
2023-02-11T15:22:28.204Z,102988.03
2023-02-11T15:25:00.474Z,102989.75
2023-02-11T15:27:28.438Z,102982.47
2023-02-11T15:29:57.510Z,102992.03
2023-02-11T15:32:27.017Z,102993.22
2023-02-11T15:34:56.848Z,102996.38
2023-02-11T15:37:26.500Z,102997.22
2023-02-11T15:39:55.391Z,102997.25
2023-02-11T15:42:26.484Z,102996.78
2023-02-11T15:47:53.082Z,102997.31
2023-02-11T15:50:22.899Z,102985.06
2023-02-11T15:52:51.813Z,102986.03
2023-02-11T15:55:20.823Z,102993.13
2023-02-11T15:57:57.484Z,102985.50
2023-02-11T16:00:30.270Z,102987.16
2023-02-11T16:02:59.543Z,102984.94
2023-02-11T16:05:31.446Z,102993.44
2023-02-11T16:08:00.416Z,102990.19
2023-02-11T16:10:30.551Z,102990.81
2023-02-11T16:13:18.193Z,102982.16
2023-02-11T16:15:52.363Z,102980.72
2023-02-11T16:18:38.636Z,102986.34
2023-02-11T16:21:09.097Z,102986.06
2023-02-11T16:23:39.313Z,102986.38
2023-02-11T16:26:11.171Z,102985.34
2023-02-11T16:28:39.112Z,102991.66
2023-02-11T16:31:07.160Z,102992.66
2023-02-11T16:33:36.380Z,102978.78
2023-02-11T16:36:12.618Z,102982.50
2023-02-11T16:38:40.399Z,102983.84
2023-02-11T16:41:08.787Z,102987.41
2023-02-11T16:43:36.674Z,102988.34
2023-02-11T16:46:05.728Z,102986.78
2023-02-11T16:48:34.690Z,102986.91
2023-02-11T16:51:04.559Z,102987.06
2023-02-11T16:53:32.315Z,102983.69
2023-02-11T16:56:00.224Z,102986.19
2023-02-11T16:58:27.992Z,102979.75
2023-02-11T17:00:57.059Z,102984.50
2023-02-11T17:03:30.072Z,102978.31
2023-02-11T17:05:58.403Z,102979.03
2023-02-11T17:08:27.620Z,102972.91
2023-02-11T17:10:55.442Z,102971.25
2023-02-11T17:13:23.245Z,102974.88
2023-02-11T17:15:51.502Z,102985.59
2023-02-11T17:18:19.383Z,102983.91
2023-02-11T17:20:47.550Z,102971.38
2023-02-11T17:23:15.452Z,102978.13
2023-02-11T17:25:44.643Z,102974.75
2023-02-11T17:28:13.043Z,102981.78
2023-02-11T17:30:42.363Z,102980.06
2023-02-11T17:33:10.341Z,102979.22
2023-02-11T17:35:40.899Z,102982.03
2023-02-11T17:38:08.687Z,102982.13
2023-02-11T17:40:36.381Z,102990.31
2023-02-11T17:43:05.615Z,102991.19
2023-02-11T17:45:33.439Z,102985.00
2023-02-11T17:48:01.393Z,102986.03
2023-02-11T17:50:29.598Z,102989.94
2023-02-11T17:52:58.177Z,102992.66
2023-02-11T17:55:25.970Z,103000.66
2023-02-11T17:57:53.759Z,102996.31
2023-02-11T18:00:23.717Z,102992.84
2023-02-11T18:02:51.552Z,102994.63
2023-02-11T18:05:19.251Z,103001.78
2023-02-11T18:07:48.024Z,102999.97
2023-02-11T18:10:15.820Z,102995.69
2023-02-11T18:12:43.684Z,102998.50
2023-02-11T18:15:12.000Z,103004.84
2023-02-11T18:17:41.056Z,103002.28
2023-02-11T18:20:10.032Z,103005.03
2023-02-11T18:22:40.135Z,103007.75
2023-02-11T18:25:09.472Z,103010.50
2023-02-11T18:27:37.214Z,103012.41
2023-02-11T18:30:05.781Z,103014.97
2023-02-11T18:32:33.527Z,103011.44
2023-02-11T18:35:02.638Z,103015.97
2023-02-11T18:37:30.369Z,103011.63
2023-02-11T18:39:58.164Z,103022.41
2023-02-11T18:42:25.985Z,103023.41
2023-02-11T18:44:53.741Z,103026.16
2023-02-11T18:47:21.449Z,103020.84
2023-02-11T18:49:49.230Z,103023.50
2023-02-11T18:52:18.353Z,103020.78
2023-02-11T18:54:46.275Z,103018.97
2023-02-11T18:57:13.982Z,103019.03
2023-02-11T18:59:42.910Z,103021.78
2023-02-11T19:02:10.829Z,103019.09
2023-02-11T19:04:38.650Z,103024.38
2023-02-11T19:07:06.474Z,103018.22
2023-02-11T19:09:35.637Z,103020.25
2023-02-11T19:12:04.646Z,103021.91
2023-02-11T19:14:34.161Z,103017.56
2023-02-11T19:17:04.533Z,103015.81
2023-02-11T19:19:34.320Z,103021.16
2023-02-11T19:22:03.764Z,103011.38
2023-02-11T19:24:31.984Z,103019.47
2023-02-11T19:27:03.054Z,103024.72
2023-02-11T19:29:32.104Z,103019.47
2023-02-11T19:31:59.957Z,103017.78
2023-02-11T19:34:27.905Z,103027.59
2023-02-11T19:36:56.709Z,103026.69
2023-02-11T19:39:24.825Z,103023.19
2023-02-11T19:41:52.642Z,103028.50
2023-02-11T19:44:21.703Z,103024.00
2023-02-11T19:46:50.263Z,103024.19
2023-02-11T19:49:22.884Z,103025.09
2023-02-11T19:51:50.767Z,103021.56
2023-02-11T19:54:18.632Z,103025.91
2023-02-11T19:56:49.424Z,103018.03
2023-02-11T19:59:17.290Z,103018.91
2023-02-11T20:01:47.801Z,103018.03
2023-02-11T20:04:16.737Z,103010.06
2023-02-11T20:06:44.683Z,103016.28
2023-02-11T20:09:14.917Z,103010.09
2023-02-11T20:11:43.055Z,103016.28
2023-02-11T20:14:14.685Z,103011.81
2023-02-11T20:16:49.010Z,103012.75
2023-02-11T20:19:21.352Z,103009.16
2023-02-11T20:21:52.135Z,103012.75
2023-02-11T20:24:20.522Z,103018.94
2023-02-11T20:26:49.122Z,103011.84
2023-02-11T20:29:17.474Z,103009.19
2023-02-11T20:31:45.897Z,103008.25
2023-02-11T20:34:13.707Z,103003.84
2023-02-11T20:36:42.797Z,103006.50
2023-02-11T20:39:17.058Z,103006.50
2023-02-11T20:41:46.029Z,103005.66
2023-02-11T20:44:14.376Z,103011.88
2023-02-11T20:46:45.903Z,103006.53
2023-02-11T20:49:14.539Z,103018.06
2023-02-11T20:51:44.222Z,103019.81
2023-02-11T20:54:13.324Z,103010.09
2023-02-11T20:56:41.509Z,103012.75
2023-02-11T20:59:09.511Z,103027.78
2023-02-11T21:01:40.617Z,103023.34
2023-02-11T21:04:11.976Z,103018.06
2023-02-11T21:06:42.354Z,103029.53
2023-02-11T21:09:14.301Z,103034.88
2023-02-11T21:11:42.561Z,103025.97
2023-02-11T21:14:11.056Z,103025.13
2023-02-11T21:16:39.103Z,103027.78
2023-02-11T21:19:07.549Z,103032.19
2023-02-11T21:21:37.185Z,103033.06
2023-02-11T21:24:05.550Z,103034.81
2023-02-11T21:26:35.454Z,103025.13
2023-02-11T21:29:03.244Z,103029.53
2023-02-11T21:31:33.150Z,103024.22
2023-02-11T21:34:01.250Z,103028.66
2023-02-11T21:36:30.347Z,103039.25
2023-02-11T21:38:58.252Z,103022.44
2023-02-11T21:41:27.382Z,103029.53
2023-02-11T21:43:56.556Z,103037.47
2023-02-11T21:46:24.585Z,103040.13
2023-02-11T21:48:52.976Z,103041.91
2023-02-11T21:51:22.905Z,103032.19
2023-02-11T21:53:54.549Z,103034.81
2023-02-11T21:56:22.989Z,103037.47
2023-02-11T21:58:54.461Z,103035.72
2023-02-11T22:01:25.886Z,103033.94
2023-02-11T22:03:54.224Z,103025.94
2023-02-11T22:06:26.205Z,103034.81
2023-02-11T22:08:54.967Z,103033.91
2023-02-11T22:11:22.834Z,103038.31
2023-02-11T22:13:54.988Z,103028.59
2023-02-11T22:16:24.882Z,103028.59
2023-02-11T22:18:52.862Z,103031.25
2023-02-11T22:21:23.498Z,103028.53
2023-02-11T22:23:52.151Z,103028.59
2023-02-11T22:26:22.302Z,103025.09
2023-02-11T22:28:50.332Z,103038.31
2023-02-11T22:31:19.961Z,103033.91
2023-02-11T22:33:49.470Z,103031.25
2023-02-11T22:36:20.175Z,103038.28
2023-02-11T22:38:48.192Z,103037.31
2023-02-11T22:41:16.779Z,103035.53
2023-02-11T22:43:45.761Z,103033.78
2023-02-11T22:46:16.199Z,103034.66
2023-02-11T22:48:43.987Z,103023.16
2023-02-11T22:51:14.766Z,103017.84
2023-02-11T22:53:43.639Z,103029.34
2023-02-11T22:56:15.326Z,103022.22
2023-02-11T22:58:44.238Z,103025.81
2023-02-11T23:01:12.604Z,103021.22
2023-02-11T23:03:41.003Z,103011.59
2023-02-11T23:06:09.182Z,103025.66
2023-02-11T23:08:39.884Z,103016.84
2023-02-11T23:11:09.768Z,103010.69
2023-02-11T23:13:40.326Z,103017.81
2023-02-11T23:16:10.147Z,103016.84
2023-02-11T23:18:40.241Z,103022.13
2023-02-11T23:21:12.492Z,103016.91
2023-02-11T23:23:41.780Z,103024.72
2023-02-11T23:26:11.981Z,103024.88
2023-02-11T23:28:40.159Z,103020.38
2023-02-11T23:31:16.444Z,103023.03
2023-02-11T23:33:44.687Z,103026.50
2023-02-11T23:36:13.045Z,103028.31
2023-02-11T23:38:42.367Z,103030.97
2023-02-11T23:41:10.918Z,103018.56
2023-02-11T23:43:39.070Z,103021.16
2023-02-11T23:46:07.974Z,103027.31
2023-02-11T23:48:36.629Z,103023.69
2023-02-11T23:51:05.078Z,103018.38
2023-02-11T23:53:32.831Z,103020.09
2023-02-11T23:56:01.955Z,103024.47
2023-02-11T23:58:29.975Z,103024.53
